Time;durP1;ratioP1;P1;durP2;ratioP2;P2;SDS_P1;SDS_P2;PMS_P1;PMS_P2;Temp;Humidity;BMP_temperature;BMP_pressure;BME280_temperature;BME280_humidity;BME280_pressure;Samples;Min_cycle;Max_cycle;Signal;HPM_P1;HPM_P2
2021/05/21 00:01:29;;;;;;;0.40;0.30;;;13.90;69.00;;;;;;5113511;28;20035;-76
2021/05/21 00:03:55;;;;;;;0.47;0.30;;;13.80;69.00;;;;;;5078033;28;20043;-76
2021/05/21 00:06:20;;;;;;;1.70;0.60;;;13.90;69.10;;;;;;5113526;28;20105;-76
2021/05/21 00:08:46;;;;;;;0.60;0.45;;;13.90;69.10;;;;;;5114364;28;20115;-76
2021/05/21 00:11:13;;;;;;;0.38;0.38;;;13.90;69.10;;;;;;5094636;28;20379;-76
2021/05/21 00:13:38;;;;;;;0.38;0.38;;;13.90;69.10;;;;;;5112623;28;20044;-76
2021/05/21 00:16:04;;;;;;;0.25;0.22;;;13.80;69.10;;;;;;5094623;28;20047;-76
2021/05/21 00:18:30;;;;;;;0.30;0.30;;;13.90;69.30;;;;;;5112549;28;20400;-75
2021/05/21 00:20:56;;;;;;;0.43;0.30;;;14.00;69.40;;;;;;5078027;28;20184;-76
2021/05/21 00:23:22;;;;;;;0.65;0.57;;;13.80;69.30;;;;;;5075591;28;20105;-75
2021/05/21 00:25:48;;;;;;;1.40;0.30;;;13.90;69.40;;;;;;5094204;28;20440;-76
2021/05/21 00:28:13;;;;;;;0.40;0.40;;;13.90;69.40;;;;;;5093318;28;20051;-76
2021/05/21 00:30:39;;;;;;;0.40;0.40;;;13.90;69.40;;;;;;5075795;28;20397;-74
2021/05/21 00:33:05;;;;;;;0.57;0.35;;;13.90;69.50;;;;;;5113113;28;20032;-75
2021/05/21 00:35:31;;;;;;;0.93;0.38;;;13.90;69.40;;;;;;5081523;28;20035;-76
2021/05/21 00:37:56;;;;;;;0.30;0.30;;;13.90;69.50;;;;;;5096960;28;20444;-76
2021/05/21 00:40:23;;;;;;;0.30;0.30;;;13.90;69.50;;;;;;5095998;28;20097;-76
2021/05/21 00:42:48;;;;;;;0.50;0.30;;;13.90;69.50;;;;;;5116503;28;20035;-75
2021/05/21 00:45:14;;;;;;;0.22;0.22;;;13.90;69.60;;;;;;5116272;28;20081;-75
2021/05/21 00:47:41;;;;;;;0.45;0.30;;;13.90;69.60;;;;;;5116027;28;20035;-75
2021/05/21 00:50:08;;;;;;;0.20;0.20;;;13.80;69.50;;;;;;5115641;28;20116;-75
2021/05/21 00:52:35;;;;;;;1.35;0.30;;;14.00;69.60;;;;;;5116625;28;20092;-76
2021/05/21 00:55:01;;;;;;;0.47;0.30;;;13.90;69.60;;;;;;5097781;28;20036;-76
2021/05/21 00:57:27;;;;;;;0.40;0.38;;;13.90;69.50;;;;;;5096637;28;20441;-76
2021/05/21 00:59:54;;;;;;;0.43;0.28;;;13.90;69.50;;;;;;5080540;28;20032;-76
2021/05/21 01:02:20;;;;;;;1.20;0.30;;;14.00;69.60;;;;;;5115629;28;20079;-76
2021/05/21 01:04:46;;;;;;;0.28;0.28;;;13.90;69.60;;;;;;5097797;28;20067;-75
2021/05/21 01:07:11;;;;;;;0.28;0.28;;;13.90;69.60;;;;;;5115750;28;20370;-75
2021/05/21 01:09:37;;;;;;;0.35;0.20;;;13.90;69.60;;;;;;5097368;28;20039;-75
2021/05/21 01:12:03;;;;;;;0.30;0.30;;;13.90;69.60;;;;;;5097484;28;20132;-76
2021/05/21 01:14:29;;;;;;;0.10;0.10;;;14.00;69.60;;;;;;5115673;28;20042;-76
2021/05/21 01:16:56;;;;;;;0.30;0.30;;;14.00;69.60;;;;;;5081561;28;20120;-76
2021/05/21 01:19:21;;;;;;;0.65;0.40;;;14.00;69.60;;;;;;5116098;28;20051;-76
2021/05/21 01:21:47;;;;;;;0.70;0.22;;;14.00;69.60;;;;;;5115155;28;20564;-75
2021/05/21 01:24:13;;;;;;;0.32;0.30;;;13.90;69.60;;;;;;5115572;28;20347;-75
2021/05/21 01:26:39;;;;;;;0.52;0.35;;;13.90;69.60;;;;;;5096672;28;20036;-74
2021/05/21 01:29:06;;;;;;;0.30;0.30;;;14.00;69.70;;;;;;5096852;28;20051;-74
2021/05/21 01:31:33;;;;;;;0.52;0.40;;;14.00;69.70;;;;;;5115161;28;20042;-75
2021/05/21 01:33:59;;;;;;;0.40;0.40;;;14.00;69.80;;;;;;5115169;28;20043;-75
2021/05/21 01:36:24;;;;;;;0.30;0.30;;;13.90;69.80;;;;;;5080057;28;20038;-75
2021/05/21 01:38:55;;;;;;;0.10;0.10;;;14.00;69.80;;;;;;5095775;28;20417;-76
2021/05/21 01:41:21;;;;;;;0.50;0.38;;;14.00;69.80;;;;;;5115945;28;20035;-76
2021/05/21 01:43:47;;;;;;;0.60;0.38;;;14.10;70.00;;;;;;5096489;28;20048;-76
2021/05/21 01:46:13;;;;;;;0.90;0.40;;;14.00;69.90;;;;;;5115887;28;20051;-76
2021/05/21 01:48:39;;;;;;;0.30;0.30;;;14.00;69.80;;;;;;5115726;28;20047;-76
2021/05/21 01:51:05;;;;;;;0.50;0.50;;;14.00;69.80;;;;;;5095828;28;20036;-76
2021/05/21 01:53:34;;;;;;;0.30;0.30;;;13.90;69.80;;;;;;5096903;28;20102;-76
2021/05/21 01:56:00;;;;;;;1.08;0.45;;;13.90;69.90;;;;;;5097568;28;20042;-76
2021/05/21 01:58:26;;;;;;;0.40;0.40;;;13.90;70.00;;;;;;5097249;28;20035;-76
2021/05/21 02:00:52;;;;;;;0.55;0.32;;;14.00;70.10;;;;;;5080155;28;20032;-76
2021/05/21 02:03:17;;;;;;;0.30;0.30;;;14.00;70.10;;;;;;5115382;28;20099;-76
2021/05/21 02:05:43;;;;;;;0.20;0.20;;;14.00;70.00;;;;;;5115302;28;20040;-76
2021/05/21 02:08:09;;;;;;;1.60;0.40;;;13.90;70.00;;;;;;5078993;28;20047;-76
2021/05/21 02:10:34;;;;;;;0.38;0.20;;;14.00;70.10;;;;;;5095556;28;20473;-76
2021/05/21 02:13:00;;;;;;;0.30;0.20;;;13.90;70.10;;;;;;5096568;28;20520;-75
2021/05/21 02:15:25;;;;;;;0.30;0.30;;;13.90;70.10;;;;;;5115031;28;20024;-75
2021/05/21 02:17:51;;;;;;;0.93;0.38;;;13.90;70.20;;;;;;5079426;28;20036;-75
2021/05/21 02:20:17;;;;;;;0.70;0.30;;;13.80;70.30;;;;;;5097004;28;20036;-76
2021/05/21 02:22:43;;;;;;;0.30;0.30;;;13.60;70.70;;;;;;5096577;28;20036;-76
2021/05/21 02:25:10;;;;;;;0.20;0.20;;;13.40;71.30;;;;;;5114970;28;20036;-77
2021/05/21 02:27:36;;;;;;;0.30;0.20;;;13.20;71.90;;;;;;5114991;28;20088;-76
2021/05/21 02:30:04;;;;;;;0.25;0.25;;;13.10;72.30;;;;;;5096244;28;20074;-76
2021/05/21 02:32:31;;;;;;;1.75;0.40;;;13.00;72.90;;;;;;5114417;28;20394;-77
2021/05/21 02:34:56;;;;;;;0.73;0.40;;;12.80;73.10;;;;;;5096442;28;20039;-76
2021/05/21 02:37:22;;;;;;;1.52;0.60;;;12.70;73.40;;;;;;5115753;28;20032;-77
2021/05/21 02:39:48;;;;;;;0.82;0.40;;;12.70;73.70;;;;;;5116401;28;20028;-76
2021/05/21 02:42:14;;;;;;;2.03;0.50;;;12.60;73.90;;;;;;5120325;28;20127;-76
2021/05/21 02:44:39;;;;;;;0.90;0.43;;;12.40;74.10;;;;;;5122942;28;20040;-76
2021/05/21 02:47:06;;;;;;;0.57;0.40;;;12.30;74.40;;;;;;5072135;28;20040;-77
2021/05/21 02:49:34;;;;;;;1.67;0.50;;;12.20;74.70;;;;;;5117564;28;20039;-76
2021/05/21 02:52:00;;;;;;;0.43;0.40;;;12.10;74.90;;;;;;5115250;28;20043;-76
2021/05/21 02:54:26;;;;;;;0.73;0.20;;;11.90;75.00;;;;;;5095465;28;20478;-76
2021/05/21 02:56:51;;;;;;;3.60;0.80;;;12.00;75.40;;;;;;5114656;28;20032;-77
2021/05/21 02:59:17;;;;;;;1.60;0.50;;;11.80;75.50;;;;;;5114208;28;20385;-75
2021/05/21 03:01:43;;;;;;;0.73;0.50;;;11.70;75.80;;;;;;5078765;28;20118;-75
2021/05/21 03:04:09;;;;;;;0.73;0.30;;;11.70;76.00;;;;;;5093921;28;20044;-74
2021/05/21 03:06:35;;;;;;;0.50;0.30;;;11.60;76.20;;;;;;5113887;28;20047;-74
2021/05/21 03:09:01;;;;;;;1.30;0.47;;;11.60;76.30;;;;;;5114153;28;20036;-75
2021/05/21 03:11:27;;;;;;;0.93;0.30;;;11.40;76.30;;;;;;5096650;28;20088;-75
2021/05/21 03:13:52;;;;;;;1.85;0.38;;;11.50;76.60;;;;;;5114468;28;20145;-75
2021/05/21 03:16:18;;;;;;;0.95;0.30;;;11.50;76.50;;;;;;5114161;28;20039;-74
2021/05/21 03:18:44;;;;;;;0.55;0.20;;;11.60;76.60;;;;;;5113604;28;20047;-73
2021/05/21 03:21:09;;;;;;;0.50;0.30;;;11.50;76.60;;;;;;5093695;28;20048;-74
2021/05/21 03:23:35;;;;;;;0.85;0.35;;;11.40;76.60;;;;;;5102745;28;20039;-76
2021/05/21 03:26:01;;;;;;;0.50;0.40;;;11.40;76.80;;;;;;5104178;28;20520;-76
2021/05/21 03:28:27;;;;;;;0.52;0.20;;;11.40;76.80;;;;;;5116056;28;20058;-76
2021/05/21 03:30:53;;;;;;;1.45;0.28;;;11.40;76.80;;;;;;5095373;28;20047;-76
2021/05/21 03:33:18;;;;;;;2.28;0.43;;;11.40;76.80;;;;;;5078424;28;20075;-76
2021/05/21 03:35:45;;;;;;;2.47;0.55;;;11.40;76.90;;;;;;5076980;28;20512;-76
2021/05/21 03:38:11;;;;;;;0.70;0.30;;;11.30;77.10;;;;;;5094739;28;20039;-75
2021/05/21 03:40:39;;;;;;;1.65;0.63;;;11.30;77.80;;;;;;5078465;28;20036;-75
2021/05/21 03:43:06;;;;;;;1.23;0.38;;;11.20;77.20;;;;;;5077506;28;20051;-75
2021/05/21 03:45:32;;;;;;;0.73;0.30;;;11.20;77.30;;;;;;5113127;28;20035;-75
2021/05/21 03:47:59;;;;;;;1.15;0.35;;;11.20;77.40;;;;;;5095034;28;20106;-75
2021/05/21 03:50:24;;;;;;;0.40;0.38;;;11.10;77.40;;;;;;5113517;28;20059;-76
2021/05/21 03:52:50;;;;;;;0.80;0.32;;;11.10;77.50;;;;;;5094426;28;20133;-75
2021/05/21 03:55:17;;;;;;;1.13;0.38;;;11.10;77.60;;;;;;5113346;28;20084;-75
2021/05/21 03:57:44;;;;;;;0.70;0.32;;;11.10;77.60;;;;;;5113158;28;20039;-74
2021/05/21 04:00:13;;;;;;;0.75;0.28;;;11.00;77.70;;;;;;5094713;28;20101;-75
2021/05/21 04:02:39;;;;;;;0.45;0.20;;;11.00;77.90;;;;;;5094317;28;20456;-75
2021/05/21 04:05:05;;;;;;;0.60;0.30;;;11.00;78.00;;;;;;5112877;28;20067;-75
2021/05/21 04:07:31;;;;;;;1.30;0.30;;;10.90;78.00;;;;;;5094697;28;20088;-75
2021/05/21 04:09:57;;;;;;;1.50;0.40;;;11.00;78.10;;;;;;5113555;28;20032;-74
2021/05/21 04:12:25;;;;;;;1.05;0.30;;;11.00;78.10;;;;;;5095418;28;20048;-75
2021/05/21 04:14:51;;;;;;;0.20;0.20;;;11.10;78.00;;;;;;5097713;28;20063;-75
2021/05/21 04:17:19;;;;;;;0.93;0.20;;;11.10;77.90;;;;;;5080193;28;20490;-76
2021/05/21 04:19:52;;;;;;;1.48;0.30;;;11.10;77.80;;;;;;5117617;28;20028;-76
2021/05/21 04:22:18;;;;;;;0.20;0.20;;;11.10;77.80;;;;;;5114673;28;20036;-75
2021/05/21 04:24:44;;;;;;;0.82;0.38;;;11.10;77.80;;;;;;5080490;28;20370;-76
2021/05/21 04:27:10;;;;;;;1.90;0.40;;;11.10;77.70;;;;;;5081282;28;20404;-75
2021/05/21 04:29:36;;;;;;;1.15;0.38;;;11.10;77.70;;;;;;5115635;28;20031;-75
2021/05/21 04:32:02;;;;;;;1.73;0.30;;;11.10;77.70;;;;;;5116310;28;20047;-75
2021/05/21 04:34:29;;;;;;;0.88;0.40;;;11.20;77.70;;;;;;5116832;28;20044;-76
2021/05/21 04:36:56;;;;;;;0.93;0.38;;;11.20;77.70;;;;;;5117556;28;20086;-76
2021/05/21 04:39:22;;;;;;;2.65;0.40;;;11.30;77.60;;;;;;5117908;28;20507;-76
2021/05/21 04:41:48;;;;;;;0.65;0.30;;;11.30;77.50;;;;;;5097404;28;20086;-75
2021/05/21 04:44:14;;;;;;;1.20;0.50;;;11.30;77.40;;;;;;5097721;28;20036;-75
2021/05/21 04:46:39;;;;;;;0.43;0.40;;;11.30;77.40;;;;;;5099296;28;20048;-75
2021/05/21 04:49:05;;;;;;;0.63;0.25;;;11.40;77.50;;;;;;5118343;28;20040;-75
2021/05/21 04:51:31;;;;;;;0.70;0.30;;;11.40;77.40;;;;;;5115376;28;20504;-75
2021/05/21 04:54:01;;;;;;;0.68;0.32;;;11.40;77.50;;;;;;5097569;28;20138;-76
2021/05/21 04:56:27;;;;;;;1.20;0.40;;;11.40;77.50;;;;;;5097410;28;20515;-76
2021/05/21 04:58:52;;;;;;;0.77;0.22;;;11.40;77.50;;;;;;5097427;28;20067;-76
2021/05/21 05:01:18;;;;;;;2.13;0.50;;;11.40;77.60;;;;;;5115608;28;20040;-76
2021/05/21 05:03:44;;;;;;;2.53;0.45;;;11.40;77.50;;;;;;5114670;28;20047;-77
2021/05/21 05:06:13;;;;;;;2.20;0.43;;;11.40;77.50;;;;;;5096048;28;20114;-76
2021/05/21 05:08:40;;;;;;;1.33;0.50;;;11.50;77.50;;;;;;5097156;28;20114;-76
2021/05/21 05:11:06;;;;;;;1.30;0.40;;;11.60;77.40;;;;;;5078919;28;20126;-76
2021/05/21 05:13:32;;;;;;;1.17;0.45;;;11.60;77.30;;;;;;5094527;28;20051;-75
2021/05/21 05:15:58;;;;;;;1.33;0.43;;;11.60;77.30;;;;;;5112150;28;20058;-76
2021/05/21 05:18:24;;;;;;;0.38;0.35;;;11.50;77.30;;;;;;5094199;28;20493;-76
2021/05/21 05:20:50;;;;;;;1.08;0.30;;;11.70;77.50;;;;;;5097577;28;20031;-76
2021/05/21 05:23:17;;;;;;;0.70;0.40;;;11.70;77.50;;;;;;5082756;28;20055;-76
2021/05/21 05:25:43;;;;;;;1.35;0.40;;;11.70;77.40;;;;;;5115194;28;20115;-76
2021/05/21 05:28:11;;;;;;;1.25;0.52;;;11.90;77.40;;;;;;5098192;28;20516;-75
2021/05/21 05:30:37;;;;;;;0.32;0.25;;;11.70;77.30;;;;;;5081166;28;20050;-76
2021/05/21 05:33:03;;;;;;;1.77;0.50;;;11.80;77.40;;;;;;5097602;28;20138;-76
2021/05/21 05:35:29;;;;;;;0.95;0.30;;;11.80;77.40;;;;;;5097994;28;20036;-75
2021/05/21 05:37:54;;;;;;;0.63;0.40;;;11.90;77.50;;;;;;5115928;28;20554;-75
2021/05/21 05:40:20;;;;;;;1.20;0.50;;;11.80;77.30;;;;;;5097889;28;20043;-75
2021/05/21 05:42:46;;;;;;;1.40;0.40;;;11.90;77.20;;;;;;5080973;28;20066;-75
2021/05/21 05:45:12;;;;;;;2.03;0.50;;;12.00;77.10;;;;;;5097851;28;20046;-75
2021/05/21 05:47:38;;;;;;;1.83;0.70;;;12.00;77.00;;;;;;5114930;28;20051;-75
2021/05/21 05:50:04;;;;;;;1.40;0.50;;;12.10;77.00;;;;;;5115745;28;20058;-76
2021/05/21 05:52:30;;;;;;;2.35;0.52;;;12.00;76.80;;;;;;5096054;28;20040;-75
2021/05/21 05:54:56;;;;;;;1.52;0.60;;;12.10;76.80;;;;;;5096911;28;20392;-75
2021/05/21 05:57:22;;;;;;;1.58;0.63;;;12.10;76.70;;;;;;5114888;28;20040;-75
2021/05/21 05:59:48;;;;;;;2.05;0.75;;;12.10;76.60;;;;;;5079686;28;20044;-75
2021/05/21 06:02:13;;;;;;;2.83;0.60;;;12.10;76.60;;;;;;5115068;28;20439;-76
2021/05/21 06:04:40;;;;;;;2.10;0.52;;;12.30;76.60;;;;;;5096917;28;20078;-74
2021/05/21 06:07:06;;;;;;;0.85;0.40;;;12.20;76.50;;;;;;5116820;28;20059;-75
2021/05/21 06:09:31;;;;;;;2.60;0.73;;;12.20;76.40;;;;;;5114862;28;20031;-75
2021/05/21 06:11:57;;;;;;;2.38;0.80;;;12.30;76.20;;;;;;5115738;28;20407;-75
2021/05/21 06:14:24;;;;;;;2.72;0.60;;;12.30;76.00;;;;;;5096841;28;20431;-76
2021/05/21 06:16:50;;;;;;;1.27;0.60;;;12.40;75.80;;;;;;5098144;28;20036;-76
2021/05/21 06:19:16;;;;;;;1.38;0.90;;;12.50;75.70;;;;;;5101147;28;20036;-77
2021/05/21 06:21:41;;;;;;;2.53;0.85;;;12.50;75.40;;;;;;5103568;28;20048;-79
2021/05/21 06:24:08;;;;;;;2.05;0.70;;;12.50;75.20;;;;;;5103568;28;20099;-78
2021/05/21 06:26:39;;;;;;;1.23;0.50;;;12.60;75.00;;;;;;5089237;28;20051;-78
2021/05/21 06:29:05;;;;;;;1.23;0.60;;;12.70;74.90;;;;;;5085118;28;20071;-77
2021/05/21 06:31:31;;;;;;;1.48;0.60;;;12.80;74.70;;;;;;5100421;28;20373;-78
2021/05/21 06:33:57;;;;;;;0.82;0.50;;;12.80;74.50;;;;;;5116647;28;20048;-76
2021/05/21 06:36:23;;;;;;;1.60;0.60;;;12.80;74.20;;;;;;5115358;28;20966;-76
2021/05/21 06:38:48;;;;;;;1.40;0.60;;;13.00;74.10;;;;;;5096928;28;20043;-77
2021/05/21 06:41:14;;;;;;;0.57;0.35;;;13.00;74.50;;;;;;5115089;28;20417;-76
2021/05/21 06:43:40;;;;;;;1.90;0.50;;;13.10;73.70;;;;;;5062847;28;20043;-77
2021/05/21 06:46:06;;;;;;;1.67;0.70;;;13.20;73.50;;;;;;5115293;28;20047;-76
2021/05/21 06:48:34;;;;;;;1.17;0.47;;;13.30;73.20;;;;;;5079994;28;20047;-77
2021/05/21 06:51:03;;;;;;;1.55;0.55;;;13.30;73.10;;;;;;5094962;28;20074;-76
2021/05/21 06:53:29;;;;;;;0.90;0.55;;;13.40;73.00;;;;;;5080013;28;20416;-77
2021/05/21 06:55:55;;;;;;;2.78;0.65;;;13.50;72.70;;;;;;5116254;28;20126;-77
2021/05/21 06:58:21;;;;;;;2.45;0.80;;;13.70;72.40;;;;;;5096500;28;20043;-76
2021/05/21 07:00:49;;;;;;;1.88;0.90;;;13.90;71.80;;;;;;5114702;28;20040;-77
2021/05/21 07:03:15;;;;;;;3.42;0.90;;;14.00;71.30;;;;;;5096547;28;20043;-77
2021/05/21 07:05:43;;;;;;;2.22;0.80;;;14.10;71.10;;;;;;5114271;28;20051;-77
2021/05/21 07:08:10;;;;;;;2.78;0.85;;;13.90;71.00;;;;;;5096561;28;20040;-76
2021/05/21 07:10:35;;;;;;;2.67;0.85;;;13.80;71.40;;;;;;5095490;28;20036;-76
2021/05/21 07:13:11;;;;;;;3.38;1.08;;;13.80;71.70;;;;;;5114466;28;20165;-77
2021/05/21 07:15:37;;;;;;;2.78;0.80;;;13.90;71.70;;;;;;5116507;28;20046;-79
2021/05/21 07:18:05;;;;;;;2.75;0.80;;;14.00;71.40;;;;;;5119341;28;20112;-76
2021/05/21 07:20:31;;;;;;;2.22;0.88;;;14.30;71.00;;;;;;5082089;28;20031;-77
2021/05/21 07:22:57;;;;;;;3.30;0.90;;;14.30;70.40;;;;;;5099578;28;20039;-76
2021/05/21 07:25:23;;;;;;;3.28;0.98;;;14.30;70.50;;;;;;5098139;28;20128;-77
2021/05/21 07:27:49;;;;;;;3.03;1.10;;;14.10;70.40;;;;;;5065000;28;20039;-77
2021/05/21 07:30:16;;;;;;;2.97;0.85;;;14.10;70.60;;;;;;5097415;28;20397;-76
2021/05/21 07:32:41;;;;;;;0.88;0.60;;;14.00;70.70;;;;;;5115258;28;20477;-77
2021/05/21 07:35:08;;;;;;;1.33;0.70;;;14.00;71.20;;;;;;5115569;28;20044;-75
2021/05/21 07:37:34;;;;;;;2.97;0.60;;;14.00;71.30;;;;;;5097698;28;20040;-77
2021/05/21 07:40:00;;;;;;;1.15;0.60;;;14.10;71.20;;;;;;5097419;28;20027;-76
2021/05/21 07:42:26;;;;;;;1.70;0.70;;;14.20;70.90;;;;;;5095684;28;20036;-76
2021/05/21 07:44:52;;;;;;;3.78;1.10;;;14.20;70.70;;;;;;5098714;28;20047;-75
2021/05/21 07:47:19;;;;;;;3.20;1.15;;;14.20;70.40;;;;;;5098093;28;20051;-78
2021/05/21 07:49:45;;;;;;;2.63;1.02;;;14.30;70.50;;;;;;5080633;28;20493;-76
2021/05/21 07:52:12;;;;;;;3.47;1.10;;;14.40;70.10;;;;;;5098261;28;20035;-75
2021/05/21 07:54:37;;;;;;;2.85;1.17;;;14.50;69.70;;;;;;5118690;28;20066;-78
2021/05/21 07:57:04;;;;;;;3.83;1.17;;;14.50;69.60;;;;;;5117780;28;20042;-78
2021/05/21 07:59:30;;;;;;;5.03;1.58;;;14.40;69.60;;;;;;5100399;28;20099;-78
2021/05/21 08:01:56;;;;;;;3.92;1.60;;;14.10;69.90;;;;;;5098389;28;20072;-77
2021/05/21 08:04:22;;;;;;;2.63;1.05;;;13.80;70.80;;;;;;5117453;28;20040;-78
2021/05/21 08:06:47;;;;;;;2.83;1.05;;;13.50;71.80;;;;;;5085881;28;20059;-80
2021/05/21 08:09:13;;;;;;;2.78;0.80;;;13.00;72.60;;;;;;5073856;28;20575;-76
2021/05/21 08:11:39;;;;;;;1.67;0.70;;;12.70;73.60;;;;;;5089010;28;20504;-78
2021/05/21 08:14:08;;;;;;;1.35;0.50;;;12.30;74.30;;;;;;5097350;28;20046;-78
2021/05/21 08:16:33;;;;;;;0.68;0.40;;;12.20;75.10;;;;;;5100869;28;20048;-77
2021/05/21 08:18:59;;;;;;;1.30;0.57;;;12.00;75.50;;;;;;5098022;28;20035;-76
2021/05/21 08:21:26;;;;;;;1.00;0.60;;;12.10;75.80;;;;;;5101974;28;20493;-77
2021/05/21 08:23:52;;;;;;;0.30;0.20;;;12.20;75.50;;;;;;5109447;28;20027;-77
2021/05/21 08:26:18;;;;;;;0.75;0.40;;;12.50;75.40;;;;;;5121816;28;20046;-76
2021/05/21 08:28:44;;;;;;;0.85;0.40;;;12.80;75.40;;;;;;5089894;28;20043;-76
2021/05/21 08:31:10;;;;;;;1.23;0.50;;;12.90;74.10;;;;;;5120598;28;20071;-79
2021/05/21 08:33:43;;;;;;;2.33;0.60;;;13.20;73.70;;;;;;5070557;28;20032;-78
2021/05/21 08:36:10;;;;;;;1.88;0.75;;;13.50;73.20;;;;;;5092090;28;20042;-78
2021/05/21 08:38:37;;;;;;;1.10;0.52;;;13.70;72.80;;;;;;5102363;28;20047;-77
2021/05/21 08:41:05;;;;;;;2.03;0.70;;;13.80;72.50;;;;;;5116053;28;20104;-78
2021/05/21 08:43:32;;;;;;;1.80;0.65;;;14.00;72.40;;;;;;5083298;28;20036;-77
2021/05/21 08:45:59;;;;;;;1.70;0.90;;;14.30;72.20;;;;;;5075889;28;20040;-77
2021/05/21 08:48:24;;;;;;;2.67;1.13;;;14.30;71.80;;;;;;5100554;28;20120;-78
2021/05/21 08:50:50;;;;;;;3.13;0.80;;;14.50;71.80;;;;;;5119678;28;20047;-77
2021/05/21 08:53:17;;;;;;;1.17;0.63;;;14.60;71.50;;;;;;5078418;28;20040;-76
2021/05/21 08:55:42;;;;;;;2.20;0.77;;;14.80;71.50;;;;;;5126284;28;20039;-75
2021/05/21 08:58:11;;;;;;;2.33;0.90;;;15.00;71.00;;;;;;5104811;28;20028;-79
2021/05/21 09:00:38;;;;;;;2.47;1.00;;;15.20;70.90;;;;;;5102401;28;20047;-78
2021/05/21 09:03:21;;;;;;;2.38;0.90;;;15.30;70.50;;;;;;5105621;28;20058;-77
2021/05/21 09:06:13;;;;;;;3.53;1.20;;;15.40;69.80;;;;;;5121115;28;20112;-76
2021/05/21 09:08:44;;;;;;;4.35;1.35;;;15.60;69.50;;;;;;5117416;28;20067;-77
2021/05/21 09:11:33;;;;;;;4.35;1.40;;;15.40;68.90;;;;;;5065822;28;20058;-77
2021/05/21 09:14:20;;;;;;;2.38;1.25;;;15.30;69.20;;;;;;5117798;28;20570;-77
2021/05/21 09:16:48;;;;;;;2.60;0.90;;;15.40;69.00;;;;;;5099750;28;20050;-76
2021/05/21 09:19:19;;;;;;;2.22;0.95;;;15.40;68.90;;;;;;5081475;28;20028;-76
2021/05/21 09:22:09;;;;;;;1.40;0.70;;;15.30;69.20;;;;;;5116224;28;20036;-76
2021/05/21 09:24:41;;;;;;;2.95;1.00;;;15.10;69.60;;;;;;5116508;28;20038;-77
2021/05/21 09:27:09;;;;;;;1.80;0.75;;;14.80;70.10;;;;;;5115416;28;20039;-75
2021/05/21 09:29:44;;;;;;;1.85;0.60;;;14.20;71.20;;;;;;5080272;28;20144;-76
2021/05/21 09:32:27;;;;;;;2.38;0.70;;;13.80;72.70;;;;;;5096363;28;20044;-75
2021/05/21 09:35:05;;;;;;;1.35;0.50;;;13.60;73.60;;;;;;5080116;28;20031;-75
2021/05/21 09:37:32;;;;;;;2.30;0.70;;;13.30;74.30;;;;;;5080811;28;20043;-76
2021/05/21 09:40:05;;;;;;;0.70;0.40;;;13.10;74.80;;;;;;5097214;28;20481;-76
2021/05/21 09:42:45;;;;;;;1.48;0.50;;;13.00;75.30;;;;;;5097367;28;20074;-77
2021/05/21 09:45:24;;;;;;;0.30;0.20;;;13.10;75.50;;;;;;5116617;28;20047;-78
2021/05/21 09:47:55;;;;;;;0.55;0.30;;;13.10;75.40;;;;;;5081380;28;20075;-76
2021/05/21 09:50:34;;;;;;;1.83;0.60;;;13.20;75.40;;;;;;5098677;28;20441;-76
2021/05/21 09:53:03;;;;;;;0.75;0.57;;;13.50;75.20;;;;;;5096910;28;20051;-75
2021/05/21 09:55:38;;;;;;;0.60;0.43;;;13.80;74.40;;;;;;5115677;28;20039;-75
2021/05/21 09:58:05;;;;;;;1.73;0.50;;;14.00;73.70;;;;;;5115200;28;20116;-75
2021/05/21 10:00:30;;;;;;;2.05;0.70;;;14.20;73.20;;;;;;5115455;28;20044;-75
2021/05/21 10:02:56;;;;;;;1.67;0.60;;;14.20;73.10;;;;;;5080162;28;20125;-76
2021/05/21 10:05:23;;;;;;;2.28;0.77;;;14.10;73.10;;;;;;5114768;28;20036;-75
2021/05/21 10:07:52;;;;;;;2.20;0.68;;;14.20;72.90;;;;;;5079871;28;20039;-75
2021/05/21 10:10:19;;;;;;;1.55;0.70;;;14.30;73.00;;;;;;5097424;28;20038;-76
2021/05/21 10:12:45;;;;;;;2.53;0.80;;;14.20;72.90;;;;;;5096837;28;20561;-76
2021/05/21 10:15:10;;;;;;;3.17;0.75;;;14.10;73.00;;;;;;5097469;28;20031;-75
2021/05/21 10:17:38;;;;;;;1.50;0.70;;;14.10;73.10;;;;;;5097256;28;20042;-75
2021/05/21 10:20:05;;;;;;;1.17;0.70;;;14.20;73.20;;;;;;5079698;28;20055;-74
2021/05/21 10:22:37;;;;;;;1.75;0.63;;;14.40;72.90;;;;;;5096359;28;20066;-74
2021/05/21 10:25:23;;;;;;;2.50;1.02;;;14.70;72.40;;;;;;5098321;28;20044;-75
2021/05/21 10:27:52;;;;;;;1.95;0.93;;;14.90;71.80;;;;;;5100919;28;20501;-75
2021/05/21 10:30:22;;;;;;;4.28;1.10;;;15.00;71.20;;;;;;5098296;28;20099;-77
2021/05/21 10:32:48;;;;;;;2.50;0.85;;;15.20;70.90;;;;;;5084715;28;20055;-76
2021/05/21 10:35:19;;;;;;;2.65;1.05;;;15.00;70.60;;;;;;5120168;28;20393;-76
2021/05/21 10:37:47;;;;;;;1.98;0.70;;;15.10;70.80;;;;;;5102340;28;20036;-76
2021/05/21 10:40:25;;;;;;;2.70;1.00;;;15.20;70.70;;;;;;5100496;28;20027;-77
2021/05/21 10:42:52;;;;;;;2.58;0.98;;;15.30;70.10;;;;;;5099842;28;20071;-76
2021/05/21 10:45:20;;;;;;;2.42;0.93;;;15.40;69.80;;;;;;5099933;28;20067;-76
2021/05/21 10:47:56;;;;;;;2.65;1.10;;;15.20;69.40;;;;;;5115905;28;20046;-75
2021/05/21 10:50:22;;;;;;;2.42;1.02;;;14.80;69.90;;;;;;5098306;28;20584;-75
2021/05/21 10:52:59;;;;;;;3.47;0.90;;;14.60;70.80;;;;;;5098418;28;20083;-76
2021/05/21 10:55:49;;;;;;;1.98;0.75;;;14.50;71.40;;;;;;5097370;28;20027;-75
2021/05/21 10:58:18;;;;;;;3.45;0.77;;;14.40;71.80;;;;;;5079325;28;20035;-75
2021/05/21 11:01:15;;;;;;;3.70;0.80;;;14.40;71.80;;;;;;5095081;28;20138;-75
2021/05/21 11:04:03;;;;;;;2.08;0.70;;;14.30;71.80;;;;;;5095902;28;20097;-76
2021/05/21 11:06:31;;;;;;;1.42;0.80;;;14.50;71.60;;;;;;5115246;28;20039;-76
2021/05/21 11:09:14;;;;;;;3.20;1.10;;;14.60;71.30;;;;;;5096196;28;20050;-76
2021/05/21 11:11:47;;;;;;;2.30;0.80;;;14.50;71.20;;;;;;5096256;28;20047;-75
2021/05/21 11:14:31;;;;;;;1.25;0.60;;;14.50;71.20;;;;;;5115528;28;20044;-75
2021/05/21 11:17:22;;;;;;;1.30;0.63;;;14.50;71.40;;;;;;5092247;28;20047;-75
2021/05/21 11:19:53;;;;;;;1.53;0.53;;;14.60;71.40;;;;;;5111825;28;20110;-76
2021/05/21 11:22:35;;;;;;;1.50;0.52;;;14.80;71.30;;;;;;5095485;28;20047;-75
2021/05/21 11:25:12;;;;;;;1.65;0.40;;;15.00;70.70;;;;;;5094868;28;20082;-75
2021/05/21 11:27:38;;;;;;;2.42;0.60;;;15.40;70.20;;;;;;5114613;28;20054;-75
2021/05/21 11:30:07;;;;;;;1.55;0.68;;;15.70;69.60;;;;;;5078276;28;20043;-75
2021/05/21 11:32:34;;;;;;;1.58;0.47;;;15.80;69.10;;;;;;5095007;28;20511;-75
2021/05/21 11:34:59;;;;;;;2.88;0.80;;;15.70;68.80;;;;;;5061986;28;20039;-76
2021/05/21 11:37:29;;;;;;;3.25;0.88;;;15.60;68.80;;;;;;5115606;28;20035;-76
2021/05/21 11:39:56;;;;;;;6.63;1.40;;;15.40;69.00;;;;;;5102966;28;20119;-75
2021/05/21 11:42:23;;;;;;;4.82;1.30;;;14.90;69.20;;;;;;5121870;28;20039;-77
2021/05/21 11:44:54;;;;;;;4.88;1.33;;;14.30;70.60;;;;;;5082934;28;20505;-75
2021/05/21 11:47:25;;;;;;;2.85;1.23;;;13.70;72.50;;;;;;5084513;28;20103;-75
2021/05/21 11:49:51;;;;;;;;;;;13.30;73.90;;;;;;5097324;28;20424;-75
2021/05/21 11:52:17;;;;;;;1.13;0.68;;;13.00;74.60;;;;;;5115611;28;19923;-75
2021/05/21 11:54:43;;;;;;;2.50;0.80;;;12.90;75.10;;;;;;5095879;28;20036;-77
2021/05/21 11:57:13;;;;;;;3.75;0.88;;;12.80;75.30;;;;;;5095827;28;20031;-77
2021/05/21 11:59:39;;;;;;;2.77;0.63;;;12.80;75.50;;;;;;5096854;28;20067;-77
2021/05/21 12:02:05;;;;;;;1.85;0.50;;;12.90;75.50;;;;;;5098845;28;20057;-76
2021/05/21 12:04:34;;;;;;;0.93;0.38;;;13.10;75.30;;;;;;5114553;28;20032;-77
2021/05/21 12:07:00;;;;;;;1.45;0.50;;;13.30;74.80;;;;;;5095817;28;20064;-76
2021/05/21 12:09:26;;;;;;;1.65;0.60;;;13.50;74.30;;;;;;5115372;28;20035;-77
2021/05/21 12:11:54;;;;;;;2.00;0.60;;;13.80;74.10;;;;;;5098642;28;20124;-77
2021/05/21 12:14:22;;;;;;;0.95;0.50;;;13.90;73.80;;;;;;5098777;28;20043;-76
2021/05/21 12:16:51;;;;;;;0.85;0.50;;;14.20;73.40;;;;;;5115331;28;20039;-76
2021/05/21 12:19:18;;;;;;;1.92;0.65;;;14.20;73.10;;;;;;5115024;28;20036;-77
2021/05/21 12:21:47;;;;;;;3.63;0.70;;;14.40;72.80;;;;;;5100733;28;20047;-77
2021/05/21 12:24:15;;;;;;;1.83;0.80;;;14.50;72.60;;;;;;5122613;28;20047;-77
2021/05/21 12:26:42;;;;;;;2.85;0.70;;;14.70;72.70;;;;;;5097922;28;20046;-77
2021/05/21 12:29:10;;;;;;;4.00;1.08;;;14.80;72.40;;;;;;5101039;28;20527;-77
2021/05/21 12:31:40;;;;;;;1.90;0.68;;;14.90;72.20;;;;;;5085915;28;20040;-76
2021/05/21 12:34:07;;;;;;;2.22;0.95;;;15.00;71.70;;;;;;5122406;28;20049;-76
2021/05/21 12:36:34;;;;;;;3.92;0.80;;;15.10;71.40;;;;;;5122682;28;20035;-77
2021/05/21 12:39:04;;;;;;;3.22;1.02;;;15.10;71.20;;;;;;5121356;28;20036;-77
2021/05/21 12:41:34;;;;;;;2.60;1.10;;;15.10;71.30;;;;;;5027211;28;20415;-77
2021/05/21 12:44:08;;;;;;;2.67;0.77;;;15.00;71.20;;;;;;5057101;28;20490;-76
2021/05/21 12:46:39;;;;;;;2.25;0.75;;;15.00;71.40;;;;;;5058215;28;20045;-76
2021/05/21 12:49:08;;;;;;;1.35;0.80;;;15.00;71.50;;;;;;5043671;28;20048;-76
2021/05/21 12:51:35;;;;;;;2.92;0.77;;;15.00;71.60;;;;;;5040778;28;20040;-76